Terminal Aerodrome Forecast
Issued by NWS

Home | Current Version | Previous Version | Graphics & Text | Print | Product List | Glossary On
Versions: 1 2 3 4 5 6 7 8 9 10 11 12 13 14 15 16 17 18 19 20 21 22 23 24 25 26 27 28 29 30 31 32 33 34 35
000
FTUS43 KGRB 251139
TAFRHI
TAF
KRHI 251139Z 2512/2612 07006KT P6SM SCT009 OVC016
      TEMPO 2512/2515 BKN009
     FM251500 09008G15KT P6SM OVC013
     FM260000 09007KT 6SM -RA BR OVC014
     FM260600 09006KT 6SM -RA BR OVC007
     FM260800 09005KT 5SM -FZRA BR OVC003=

USA.gov is the U.S. government's official web portal to all federal, state and local government web resources and services.